Crestline, Alabama
Current Conditions -  °F | °C
As of 6:53 PM on Monday 22 Dec 2014 (Local Time) from KBHM Reporting Station
Overcast Overcast  
Wind Chill: 52°   Ceiling: 900
Heat Index: 52°   Visibility: 10mi
Dew Point: 49°   Wind: 10mph
Humidity: 89%   Direction: 120°ESE
Pressure: 29.8"   Gusts: 20mph
Location:  33.5082°N, 86.7399°W
Report Text: KBHM 230053Z 12009G17KT 10SM OVC009 11/09 A2980 RMK AO2 RAB27E36 SLP091 P0000 T01110094
Loading
Personal Weather Stations






























Interactive Weather Map New forecast layout! Learn more

10-Day Weather Forecast

Advertisements
Track Severe Weather on mobile